createdAt,value
2022-09-06T00:00:35.136Z,0.00
2022-09-06T00:01:35.104Z,0.00
2022-09-06T00:02:35.127Z,0.00
2022-09-06T00:03:35.112Z,0.00
2022-09-06T00:04:35.091Z,0.00
2022-09-06T00:05:35.055Z,0.00
2022-09-06T00:06:35.063Z,0.00
2022-09-06T00:07:35.038Z,0.00
2022-09-06T00:08:35.027Z,0.00
2022-09-06T00:09:35.016Z,0.00
2022-09-06T00:10:35.015Z,0.00
2022-09-06T00:11:35.008Z,0.00
2022-09-06T00:12:35.001Z,0.00
2022-09-06T00:13:34.968Z,0.00
2022-09-06T00:14:34.959Z,0.00
2022-09-06T00:15:35.000Z,0.00
2022-09-06T00:16:34.960Z,0.00
2022-09-06T00:17:34.920Z,0.00
2022-09-06T00:18:34.908Z,0.00
2022-09-06T00:19:34.908Z,0.00
2022-09-06T00:20:34.880Z,0.00
2022-09-06T00:21:34.900Z,0.00
2022-09-06T00:22:34.859Z,0.00
2022-09-06T00:23:34.860Z,0.00
2022-09-06T00:24:34.840Z,0.00
2022-09-06T00:25:34.840Z,0.00
2022-09-06T00:26:34.843Z,0.00
2022-09-06T00:27:35.353Z,0.00
2022-09-06T00:28:34.812Z,0.00
2022-09-06T00:29:34.792Z,0.00
2022-09-06T00:30:34.773Z,0.00
2022-09-06T00:31:34.911Z,0.00
2022-09-06T00:32:34.759Z,0.00
2022-09-06T00:33:34.752Z,0.00
2022-09-06T00:34:34.744Z,0.00
2022-09-06T00:35:34.732Z,0.00
2022-09-06T00:36:34.716Z,0.00
2022-09-06T00:37:34.704Z,0.00
2022-09-06T00:38:34.694Z,0.00
2022-09-06T00:39:34.727Z,0.00
2022-09-06T00:40:34.681Z,0.00
2022-09-06T00:41:34.688Z,0.00
2022-09-06T00:42:34.656Z,0.00
2022-09-06T00:43:34.642Z,0.00
2022-09-06T00:44:34.633Z,0.00
2022-09-06T00:45:34.641Z,0.00
2022-09-06T00:46:34.698Z,0.00
2022-09-06T00:47:34.604Z,0.00
2022-09-06T00:48:34.577Z,0.00
2022-09-06T00:49:34.576Z,0.00
2022-09-06T00:50:34.557Z,0.00
2022-09-06T00:51:34.556Z,0.00
2022-09-06T00:52:34.544Z,0.00
2022-09-06T00:53:34.536Z,0.00
2022-09-06T00:54:34.508Z,0.00
2022-09-06T00:56:25.076Z,0.00
2022-09-06T00:57:24.772Z,0.00
2022-09-06T00:58:24.812Z,0.00
2022-09-06T00:59:25.488Z,0.00
2022-09-06T01:00:24.757Z,0.00
2022-09-06T01:01:24.768Z,0.00
2022-09-06T01:02:24.895Z,0.00
2022-09-06T01:03:24.716Z,0.00
2022-09-06T01:04:24.713Z,0.00
2022-09-06T01:05:24.704Z,0.00
2022-09-06T01:06:24.706Z,0.00
2022-09-06T01:07:24.672Z,0.00
2022-09-06T01:08:24.697Z,0.00
2022-09-06T01:09:24.656Z,0.00
2022-09-06T01:10:24.645Z,0.00
2022-09-06T01:11:24.637Z,0.00
2022-09-06T01:12:24.604Z,0.00
2022-09-06T01:13:24.617Z,0.00
2022-09-06T01:14:24.604Z,0.00
2022-09-06T01:15:24.618Z,0.00
2022-09-06T01:16:24.580Z,0.00
2022-09-06T01:17:24.578Z,0.00
2022-09-06T01:18:25.123Z,0.00
2022-09-06T01:19:24.536Z,0.00
2022-09-06T01:20:24.538Z,0.00
2022-09-06T01:21:24.516Z,0.00
2022-09-06T01:22:24.529Z,0.00
2022-09-06T01:23:24.497Z,0.00
2022-09-06T01:24:24.489Z,0.00
2022-09-06T01:25:24.476Z,0.00
2022-09-06T01:26:24.485Z,0.00
2022-09-06T01:27:24.461Z,0.00
2022-09-06T01:28:24.505Z,0.00
2022-09-06T01:29:24.448Z,0.00
2022-09-06T01:30:24.428Z,0.00
2022-09-06T01:31:24.485Z,0.00
2022-09-06T01:32:24.404Z,0.00
2022-09-06T01:33:24.400Z,0.00
2022-09-06T01:34:24.401Z,0.00
2022-09-06T01:35:24.361Z,0.00
2022-09-06T01:36:24.360Z,0.00
2022-09-06T01:37:24.348Z,0.00
2022-09-06T01:38:24.913Z,0.00
2022-09-06T01:39:24.404Z,0.00
2022-09-06T01:40:24.317Z,0.00
2022-09-06T01:41:24.294Z,0.00
2022-09-06T01:42:24.301Z,0.00
2022-09-06T01:43:24.292Z,0.00
2022-09-06T01:44:24.273Z,0.00
2022-09-06T01:45:24.261Z,0.00
2022-09-06T01:46:24.319Z,0.00
2022-09-06T01:47:24.245Z,0.00
2022-09-06T01:48:24.233Z,0.00
2022-09-06T01:49:24.230Z,0.00
2022-09-06T01:50:24.229Z,0.00
2022-09-06T01:51:24.193Z,0.00
2022-09-06T01:52:24.186Z,0.00
2022-09-06T01:53:24.173Z,0.00
2022-09-06T01:54:24.186Z,0.00
2022-09-06T01:55:24.147Z,0.00
2022-09-06T01:56:24.145Z,0.00
2022-09-06T01:57:24.126Z,0.00
2022-09-06T01:58:25.598Z,0.00
2022-09-06T01:59:24.113Z,0.00
2022-09-06T02:00:24.105Z,0.00
2022-09-06T02:01:24.106Z,0.00
2022-09-06T02:02:24.119Z,0.00
2022-09-06T02:03:24.053Z,0.00
2022-09-06T02:04:24.066Z,0.00
2022-09-06T02:05:24.038Z,0.00
2022-09-06T02:06:24.026Z,0.00
2022-09-06T02:07:24.017Z,0.00
2022-09-06T02:08:24.017Z,0.00
2022-09-06T02:09:24.017Z,0.00
2022-09-06T02:10:23.986Z,0.00
2022-09-06T02:11:23.969Z,0.00
2022-09-06T02:12:24.017Z,0.00
2022-09-06T02:13:23.937Z,0.00
2022-09-06T02:14:23.958Z,0.00
2022-09-06T02:15:23.918Z,0.00
2022-09-06T02:16:24.035Z,0.00
2022-09-06T02:17:23.897Z,0.00
2022-09-06T02:18:24.202Z,0.00
2022-09-06T02:19:23.889Z,0.00
2022-09-06T02:20:23.882Z,0.00
2022-09-06T02:21:23.861Z,0.00
2022-09-06T02:22:23.870Z,0.00
2022-09-06T02:23:23.841Z,0.00
2022-09-06T02:24:23.846Z,0.00
2022-09-06T02:25:23.809Z,0.00
2022-09-06T02:26:23.814Z,0.00
2022-09-06T02:27:23.798Z,0.00
2022-09-06T02:28:23.789Z,0.00
2022-09-06T02:29:23.782Z,0.00
2022-09-06T02:30:23.762Z,0.00
2022-09-06T02:31:23.798Z,0.00
2022-09-06T02:32:23.754Z,0.00
2022-09-06T02:33:23.723Z,0.00
2022-09-06T02:34:23.738Z,0.00
2022-09-06T02:35:23.702Z,0.00
2022-09-06T02:36:23.697Z,0.00
2022-09-06T02:37:23.682Z,0.00
2022-09-06T02:38:23.766Z,0.00
2022-09-06T02:39:23.937Z,0.00
2022-09-06T02:40:23.642Z,0.00
2022-09-06T02:41:23.635Z,0.00
2022-09-06T02:42:23.646Z,0.00
2022-09-06T02:43:23.615Z,0.00
2022-09-06T02:44:23.614Z,0.00
2022-09-06T02:45:23.614Z,0.00
2022-09-06T02:46:23.624Z,0.00
2022-09-06T02:47:23.575Z,0.00
2022-09-06T02:48:23.600Z,0.00
2022-09-06T02:49:23.554Z,0.00
2022-09-06T02:50:23.546Z,0.00
2022-09-06T02:51:23.526Z,0.00
2022-09-06T02:52:23.515Z,0.00
2022-09-06T02:53:23.506Z,0.00
2022-09-06T02:54:23.496Z,0.00
2022-09-06T02:55:23.510Z,0.00
2022-09-06T02:56:23.468Z,0.00
2022-09-06T02:57:23.466Z,0.00
2022-09-06T02:58:23.458Z,0.00
2022-09-06T02:59:23.458Z,0.00
2022-09-06T03:00:23.427Z,0.00
2022-09-06T03:01:23.474Z,0.00
2022-09-06T03:02:23.477Z,0.00
2022-09-06T03:03:23.398Z,0.00
2022-09-06T03:04:23.370Z,0.00
2022-09-06T03:05:23.387Z,0.00
2022-09-06T03:06:23.359Z,0.00
2022-09-06T03:07:23.358Z,0.00
2022-09-06T03:08:23.446Z,0.00
2022-09-06T03:09:23.328Z,0.00
2022-09-06T03:10:23.330Z,0.00
2022-09-06T03:11:23.328Z,0.00
2022-09-06T03:12:23.290Z,0.00
2022-09-06T03:13:23.286Z,0.00
2022-09-06T03:14:23.271Z,0.00
2022-09-06T03:15:23.260Z,0.00
2022-09-06T03:16:23.285Z,0.00
2022-09-06T03:17:23.247Z,0.00
2022-09-06T03:18:23.310Z,0.00
2022-09-06T03:19:23.223Z,0.00
2022-09-06T03:20:23.212Z,0.00
2022-09-06T03:21:23.228Z,0.00
2022-09-06T03:22:23.176Z,0.00
2022-09-06T03:23:23.174Z,0.00
2022-09-06T03:24:23.171Z,0.00
2022-09-06T03:25:23.154Z,0.00
2022-09-06T03:26:23.133Z,0.00
2022-09-06T03:27:23.603Z,0.00
2022-09-06T03:28:23.181Z,0.00
2022-09-06T03:29:23.122Z,0.00
2022-09-06T03:30:23.127Z,0.00
2022-09-06T03:31:23.095Z,0.00
2022-09-06T03:32:23.083Z,0.00
2022-09-06T03:33:23.062Z,0.00
2022-09-06T03:34:23.064Z,0.00
2022-09-06T03:35:23.050Z,0.00
2022-09-06T03:36:23.027Z,0.00
2022-09-06T03:37:23.047Z,0.00
2022-09-06T03:38:23.013Z,0.00
2022-09-06T03:39:22.996Z,0.00
2022-09-06T03:40:22.975Z,0.00
2022-09-06T03:41:22.988Z,0.00
2022-09-06T03:42:22.979Z,0.00
2022-09-06T03:43:22.979Z,0.00
2022-09-06T03:44:22.943Z,0.00
2022-09-06T03:45:22.938Z,0.00
2022-09-06T03:46:22.966Z,0.00
2022-09-06T03:47:22.927Z,0.00
2022-09-06T03:48:22.919Z,0.00
2022-09-06T03:49:22.891Z,0.00
2022-09-06T03:50:22.879Z,0.00
2022-09-06T03:51:22.867Z,0.00
2022-09-06T03:52:22.859Z,0.00
2022-09-06T03:53:22.849Z,0.00
2022-09-06T03:54:22.821Z,0.00
2022-09-06T03:55:22.828Z,0.00
2022-09-06T03:56:22.806Z,0.00
2022-09-06T03:57:22.821Z,0.00
2022-09-06T03:58:22.790Z,0.00
2022-09-06T03:59:22.776Z,0.00
2022-09-06T04:00:22.759Z,0.00
2022-09-06T04:01:22.841Z,0.00
2022-09-06T04:02:22.802Z,0.00
2022-09-06T04:03:22.740Z,0.00
2022-09-06T04:04:22.711Z,0.00
2022-09-06T04:05:22.711Z,0.00
2022-09-06T04:06:22.699Z,0.00
2022-09-06T04:07:22.932Z,0.00
2022-09-06T04:08:22.682Z,0.00
2022-09-06T04:09:22.668Z,0.00
2022-09-06T04:10:22.651Z,0.00
2022-09-06T04:11:22.648Z,0.00
2022-09-06T04:12:22.624Z,0.00
2022-09-06T04:13:22.632Z,0.00
2022-09-06T04:14:22.624Z,0.00
2022-09-06T04:15:22.623Z,0.00
2022-09-06T04:16:22.693Z,0.00
2022-09-06T04:17:22.585Z,0.00
2022-09-06T04:18:22.629Z,0.00
2022-09-06T04:19:22.551Z,0.00
2022-09-06T04:20:22.543Z,0.00
2022-09-06T04:21:22.544Z,0.00
2022-09-06T04:22:22.524Z,0.00
2022-09-06T04:23:22.524Z,0.00
2022-09-06T04:24:22.496Z,0.00
2022-09-06T04:25:22.496Z,0.00
2022-09-06T04:26:22.483Z,0.00
2022-09-06T04:27:22.864Z,0.00
2022-09-06T04:28:22.464Z,0.00
2022-09-06T04:29:22.457Z,0.00
2022-09-06T04:30:22.423Z,0.00
2022-09-06T04:31:22.455Z,4.00
2022-09-06T04:32:22.424Z,4.00
2022-09-06T04:33:22.436Z,4.00
2022-09-06T04:34:22.397Z,0.00
2022-09-06T04:35:22.376Z,4.00
2022-09-06T04:36:22.369Z,4.00
2022-09-06T04:37:22.356Z,4.00
2022-09-06T04:38:22.348Z,4.00
2022-09-06T04:39:22.344Z,4.00
2022-09-06T04:40:22.319Z,4.00
2022-09-06T04:41:22.316Z,4.00
2022-09-06T04:42:22.288Z,4.00
2022-09-06T04:43:22.296Z,4.00
2022-09-06T04:44:22.280Z,4.00
2022-09-06T04:45:22.271Z,4.00
2022-09-06T04:46:22.354Z,4.00
2022-09-06T04:47:22.251Z,8.00
2022-09-06T04:48:22.361Z,4.00
2022-09-06T04:49:22.240Z,4.00
2022-09-06T04:50:22.216Z,4.00
2022-09-06T04:51:22.200Z,4.00
2022-09-06T04:52:22.180Z,4.00
2022-09-06T04:53:22.200Z,4.00
2022-09-06T04:54:22.169Z,4.00
2022-09-06T04:55:22.161Z,8.00
2022-09-06T04:56:22.148Z,8.00
2022-09-06T04:57:22.132Z,8.00
2022-09-06T04:58:22.121Z,8.00
2022-09-06T04:59:22.122Z,8.00
2022-09-06T05:00:22.101Z,8.00
2022-09-06T05:01:22.143Z,8.00
2022-09-06T05:02:22.116Z,8.00
2022-09-06T05:03:22.061Z,12.00
2022-09-06T05:04:22.073Z,12.00
2022-09-06T05:05:22.061Z,8.00
2022-09-06T05:06:22.041Z,12.00
2022-09-06T05:07:22.034Z,12.00
2022-09-06T05:08:22.081Z,12.00
2022-09-06T05:09:22.033Z,16.00
2022-09-06T05:10:21.973Z,16.00
2022-09-06T05:11:21.986Z,16.00
2022-09-06T05:12:21.953Z,12.00
2022-09-06T05:13:21.966Z,12.00
2022-09-06T05:14:22.253Z,16.00
2022-09-06T05:15:21.947Z,16.00
2022-09-06T05:16:21.997Z,16.00
2022-09-06T05:17:21.913Z,16.00
2022-09-06T05:18:21.905Z,20.00
2022-09-06T05:19:21.886Z,20.00
2022-09-06T05:20:21.879Z,20.00
2022-09-06T05:21:21.866Z,20.00
2022-09-06T05:22:21.845Z,20.00
2022-09-06T05:23:21.858Z,24.00
2022-09-06T05:24:21.827Z,24.00
2022-09-06T05:25:21.857Z,28.00
2022-09-06T05:26:21.806Z,36.00
2022-09-06T05:27:21.806Z,40.00
2022-09-06T05:28:21.852Z,52.00
2022-09-06T05:29:21.778Z,68.00
2022-09-06T05:30:21.779Z,84.00
2022-09-06T05:31:21.811Z,92.00
2022-09-06T05:32:21.737Z,100.00
2022-09-06T05:33:21.738Z,104.00
2022-09-06T05:34:21.718Z,104.00
2022-09-06T05:35:21.710Z,104.00
2022-09-06T05:36:21.710Z,108.00
2022-09-06T05:37:21.699Z,112.00
2022-09-06T05:38:21.744Z,124.00
2022-09-06T05:39:21.669Z,132.00
2022-09-06T05:40:21.658Z,144.00
2022-09-06T05:41:21.669Z,148.00
2022-09-06T05:42:21.630Z,144.00
2022-09-06T05:43:21.621Z,136.00
2022-09-06T05:44:21.609Z,124.00
2022-09-06T05:45:21.704Z,112.00
2022-09-06T05:46:21.601Z,108.00
2022-09-06T05:47:21.581Z,104.00
2022-09-06T05:48:21.610Z,96.00
2022-09-06T05:49:21.562Z,96.00
2022-09-06T05:50:21.534Z,96.00
2022-09-06T05:51:21.539Z,100.00
2022-09-06T05:52:21.522Z,112.00
2022-09-06T05:53:21.542Z,116.00
2022-09-06T05:54:21.495Z,128.00
2022-09-06T05:55:21.482Z,140.00
2022-09-06T05:56:22.338Z,156.00
2022-09-06T05:57:21.470Z,172.00
2022-09-06T05:58:21.518Z,188.00
2022-09-06T05:59:21.453Z,200.00
2022-09-06T06:00:21.423Z,212.00
2022-09-06T06:01:21.532Z,224.00
2022-09-06T06:02:21.469Z,236.00
2022-09-06T06:03:21.413Z,252.00
2022-09-06T06:04:21.386Z,268.00
2022-09-06T06:05:21.386Z,276.00
2022-09-06T06:06:21.354Z,276.00
2022-09-06T06:07:21.354Z,280.00
2022-09-06T06:08:21.417Z,272.00
2022-09-06T06:09:21.334Z,268.00
2022-09-06T06:10:21.314Z,264.00
2022-09-06T06:11:21.314Z,268.00
2022-09-06T06:12:21.303Z,276.00
2022-09-06T06:13:21.286Z,276.00
2022-09-06T06:14:21.287Z,276.00
2022-09-06T06:15:21.307Z,288.00
2022-09-06T06:16:21.303Z,300.00
2022-09-06T06:17:21.264Z,308.00
2022-09-06T06:18:21.247Z,308.00
2022-09-06T06:19:21.257Z,316.00
2022-09-06T06:20:21.198Z,320.00
2022-09-06T06:21:21.199Z,316.00
2022-09-06T06:22:21.186Z,324.00
2022-09-06T06:23:21.198Z,340.00
2022-09-06T06:24:21.166Z,364.00
2022-09-06T06:25:21.158Z,396.00
2022-09-06T06:26:21.139Z,420.00
2022-09-06T06:27:21.139Z,444.00
2022-09-06T06:28:21.210Z,456.00
2022-09-06T06:29:21.113Z,472.00
2022-09-06T06:30:21.090Z,488.00
2022-09-06T06:31:21.171Z,512.00
2022-09-06T06:32:21.070Z,536.00
2022-09-06T06:33:21.093Z,564.00
2022-09-06T06:34:21.070Z,580.00
2022-09-06T06:35:21.043Z,592.00
2022-09-06T06:36:21.271Z,592.00
2022-09-06T06:37:21.022Z,604.00
2022-09-06T06:38:21.069Z,596.00
2022-09-06T06:39:21.020Z,580.00
2022-09-06T06:40:20.990Z,556.00
2022-09-06T06:41:20.983Z,512.00
2022-09-06T06:42:20.955Z,472.00
2022-09-06T06:43:20.981Z,440.00
2022-09-06T06:44:20.936Z,412.00
2022-09-06T06:45:20.930Z,400.00
2022-09-06T06:46:20.979Z,404.00
2022-09-06T06:47:20.915Z,420.00
2022-09-06T06:48:20.903Z,436.00
2022-09-06T06:49:20.896Z,452.00
2022-09-06T06:50:20.884Z,460.00
2022-09-06T06:51:20.863Z,456.00
2022-09-06T06:52:20.844Z,456.00
2022-09-06T06:53:20.876Z,476.00
2022-09-06T06:54:20.835Z,488.00
2022-09-06T06:55:20.823Z,484.00
2022-09-06T06:56:20.823Z,472.00
2022-09-06T06:57:20.795Z,472.00
2022-09-06T06:58:20.844Z,488.00
2022-09-06T06:59:20.803Z,516.00
2022-09-06T07:00:22.331Z,544.00
2022-09-06T07:01:20.859Z,584.00
2022-09-06T07:02:20.809Z,620.00
2022-09-06T07:03:20.736Z,660.00
2022-09-06T07:04:20.739Z,688.00
2022-09-06T07:06:21.847Z,740.00
2022-09-06T07:07:38.015Z,788.00
2022-09-06T07:08:21.715Z,844.00
2022-09-06T07:09:20.670Z,896.00
2022-09-06T07:10:35.993Z,932.00
2022-09-06T07:11:24.334Z,960.00
2022-09-06T07:12:20.639Z,980.00
2022-09-06T07:13:20.608Z,992.00
2022-09-06T07:14:20.648Z,1012.00
2022-09-06T07:15:20.603Z,1036.00
2022-09-06T07:16:21.042Z,1076.00
2022-09-06T07:17:20.571Z,1156.00
2022-09-06T07:18:20.579Z,1244.00
2022-09-06T07:20:21.581Z,1352.00
2022-09-06T07:22:21.531Z,1356.00
2022-09-06T07:24:21.513Z,1260.00
2022-09-06T07:25:21.520Z,1232.00
2022-09-06T07:26:20.512Z,1236.00
2022-09-06T07:28:21.571Z,1292.00
2022-09-06T07:29:20.444Z,1336.00
2022-09-06T07:30:20.587Z,1404.00
2022-09-06T07:32:21.432Z,1412.00
2022-09-06T07:33:20.405Z,1416.00
2022-09-06T07:34:20.526Z,1420.00
2022-09-06T07:35:20.379Z,1436.00
2022-09-06T07:36:20.404Z,1472.00
2022-09-06T07:37:20.353Z,1484.00
2022-09-06T07:38:20.356Z,1528.00
2022-09-06T07:39:20.335Z,1460.00
2022-09-06T07:40:20.331Z,1376.00
2022-09-06T07:41:20.324Z,1372.00
2022-09-06T07:42:20.335Z,1452.00
2022-09-06T07:43:20.296Z,1348.00
2022-09-06T07:44:20.304Z,1408.00
2022-09-06T07:45:20.264Z,1368.00
2022-09-06T07:46:20.296Z,1296.00
2022-09-06T07:48:21.274Z,1400.00
2022-09-06T07:49:20.232Z,1364.00
2022-09-06T07:51:21.216Z,1208.00
2022-09-06T07:53:29.308Z,1164.00
2022-09-06T07:54:36.633Z,1180.00
2022-09-06T07:55:21.156Z,1188.00
2022-09-06T07:56:20.158Z,1036.00
2022-09-06T07:57:20.129Z,1104.00
2022-09-06T07:58:20.369Z,968.00
2022-09-06T07:59:20.120Z,1012.00
2022-09-06T08:00:20.109Z,960.00
2022-09-06T08:01:20.143Z,1020.00
2022-09-06T08:02:20.159Z,1008.00
2022-09-06T08:03:20.090Z,1012.00
2022-09-06T08:04:20.069Z,1016.00
2022-09-06T08:06:21.040Z,1016.00
2022-09-06T08:09:21.002Z,1024.00
2022-09-06T08:10:20.013Z,1028.00
2022-09-06T08:11:20.172Z,1032.00
2022-09-06T08:12:19.981Z,1040.00
2022-09-06T08:13:19.994Z,1048.00
2022-09-06T08:14:19.957Z,1056.00
2022-09-06T08:15:19.941Z,1060.00
2022-09-06T08:16:20.000Z,1068.00
2022-09-06T08:17:19.913Z,1068.00
2022-09-06T08:18:19.924Z,1076.00
2022-09-06T08:19:19.926Z,1084.00
2022-09-06T08:20:19.895Z,1092.00
2022-09-06T08:21:19.873Z,1104.00
2022-09-06T08:22:19.866Z,1112.00
2022-09-06T08:23:19.853Z,1116.00
2022-09-06T08:24:19.865Z,1128.00
2022-09-06T08:25:19.846Z,1136.00
2022-09-06T08:26:19.825Z,1148.00
2022-09-06T08:27:19.817Z,1156.00
2022-09-06T08:28:19.805Z,1172.00
2022-09-06T08:29:19.810Z,1184.00
2022-09-06T08:30:19.829Z,1192.00
2022-09-06T08:31:19.799Z,1204.00
2022-09-06T08:32:19.758Z,1208.00
2022-09-06T08:33:19.737Z,1220.00
2022-09-06T08:34:19.766Z,1228.00
2022-09-06T08:35:19.708Z,1236.00
2022-09-06T08:36:19.717Z,1240.00
2022-09-06T08:37:24.409Z,1248.00
2022-09-06T08:38:20.689Z,1248.00
2022-09-06T08:39:19.677Z,1256.00
2022-09-06T08:40:19.677Z,1268.00
2022-09-06T08:41:19.649Z,1272.00
2022-09-06T08:42:19.649Z,1284.00
2022-09-06T08:43:19.630Z,1288.00
2022-09-06T08:45:20.650Z,1308.00
2022-09-06T08:46:19.692Z,1316.00
2022-09-06T08:47:19.600Z,1328.00
2022-09-06T08:48:19.570Z,1332.00
2022-09-06T08:49:19.562Z,1340.00
2022-09-06T08:50:19.562Z,1348.00
2022-09-06T08:51:19.551Z,1356.00
2022-09-06T08:52:19.541Z,1364.00
2022-09-06T08:53:19.514Z,1368.00
2022-09-06T08:54:19.510Z,1376.00
2022-09-06T08:55:19.501Z,1384.00
2022-09-06T08:56:19.514Z,1400.00
2022-09-06T08:57:19.474Z,1412.00
2022-09-06T08:58:19.473Z,1420.00
2022-09-06T08:59:19.462Z,1428.00
2022-09-06T09:00:19.453Z,1440.00
2022-09-06T09:01:19.618Z,1448.00
2022-09-06T09:02:19.506Z,1456.00
2022-09-06T09:03:19.414Z,1464.00
2022-09-06T09:04:19.405Z,1476.00
2022-09-06T09:05:19.393Z,1484.00
2022-09-06T09:06:19.385Z,1492.00
2022-09-06T09:07:19.373Z,1500.00
2022-09-06T09:08:19.366Z,1508.00
2022-09-06T09:09:19.338Z,1516.00
2022-09-06T09:10:19.337Z,1528.00
2022-09-06T09:11:19.317Z,1540.00
2022-09-06T09:12:19.317Z,1548.00
2022-09-06T09:13:19.391Z,1568.00
2022-09-06T09:14:19.307Z,1596.00
2022-09-06T09:15:19.277Z,1628.00
2022-09-06T09:16:19.321Z,1648.00
2022-09-06T09:17:19.426Z,1652.00
2022-09-06T09:18:19.258Z,1636.00
2022-09-06T09:19:19.233Z,1620.00
2022-09-06T09:20:19.237Z,1616.00
2022-09-06T09:21:19.209Z,1620.00
2022-09-06T09:22:19.241Z,1628.00
2022-09-06T09:23:19.201Z,1644.00
2022-09-06T09:24:19.191Z,1652.00
2022-09-06T09:25:19.169Z,1656.00
2022-09-06T09:26:19.176Z,1664.00
2022-09-06T09:27:19.163Z,1668.00
2022-09-06T09:28:19.162Z,1672.00
2022-09-06T09:29:22.746Z,1680.00
2022-09-06T09:31:20.146Z,1688.00
2022-09-06T09:32:19.104Z,1692.00
2022-09-06T09:33:19.110Z,1692.00
2022-09-06T09:34:19.093Z,1692.00
2022-09-06T09:35:19.073Z,1696.00
2022-09-06T09:36:19.061Z,1704.00
2022-09-06T09:38:20.062Z,1708.00
2022-09-06T09:39:19.021Z,1712.00
2022-09-06T09:40:19.021Z,1720.00
2022-09-06T09:41:18.995Z,1720.00
2022-09-06T09:42:19.006Z,1720.00
2022-09-06T09:43:18.976Z,1740.00
2022-09-06T09:44:18.988Z,1756.00
2022-09-06T09:45:19.173Z,1772.00
2022-09-06T09:46:18.985Z,1780.00
2022-09-06T09:47:18.939Z,1792.00
2022-09-06T09:48:18.938Z,1800.00
2022-09-06T09:49:19.059Z,1804.00
2022-09-06T09:50:18.917Z,1820.00
2022-09-06T09:51:25.508Z,1828.00
2022-09-06T09:52:19.887Z,1844.00
2022-09-06T09:53:18.866Z,1852.00
2022-09-06T09:54:18.890Z,1856.00
2022-09-06T09:55:18.850Z,1856.00
2022-09-06T09:56:18.851Z,1876.00
2022-09-06T09:57:18.839Z,1884.00
2022-09-06T09:58:18.819Z,1888.00
2022-09-06T09:59:18.800Z,1896.00
2022-09-06T10:00:18.838Z,1896.00
2022-09-06T10:01:18.860Z,1904.00
2022-09-06T10:02:18.787Z,1904.00
2022-09-06T10:03:18.807Z,1908.00
2022-09-06T10:05:19.770Z,1904.00
2022-09-06T10:07:19.724Z,1896.00
2022-09-06T10:08:18.730Z,1904.00
2022-09-06T10:09:19.238Z,1908.00
2022-09-06T10:10:18.702Z,1916.00
2022-09-06T10:11:18.695Z,1912.00
2022-09-06T10:12:18.674Z,1924.00
2022-09-06T10:13:18.662Z,1924.00
2022-09-06T10:14:18.671Z,1924.00
2022-09-06T10:15:18.627Z,1912.00
2022-09-06T10:16:18.703Z,1900.00
2022-09-06T10:17:18.626Z,1888.00
2022-09-06T10:18:18.614Z,1872.00
2022-09-06T10:19:18.594Z,1868.00
2022-09-06T10:20:18.594Z,1852.00
2022-09-06T10:21:18.578Z,1848.00
2022-09-06T10:22:18.574Z,1836.00
2022-09-06T10:23:18.603Z,1832.00
2022-09-06T10:25:19.527Z,1828.00
2022-09-06T10:26:18.574Z,1828.00
2022-09-06T10:27:18.499Z,1812.00
2022-09-06T10:28:18.509Z,1828.00
2022-09-06T10:29:18.498Z,1836.00
2022-09-06T10:30:18.498Z,1848.00
2022-09-06T10:31:18.526Z,1856.00
2022-09-06T10:32:18.491Z,1872.00
2022-09-06T10:33:18.443Z,1876.00
2022-09-06T10:34:18.559Z,1872.00
2022-09-06T10:35:18.418Z,1880.00
2022-09-06T10:36:18.431Z,1880.00
2022-09-06T10:37:18.419Z,1888.00
2022-09-06T10:38:18.417Z,1880.00
2022-09-06T10:39:18.390Z,1884.00
2022-09-06T10:40:18.383Z,1892.00
2022-09-06T10:41:18.373Z,1892.00
2022-09-06T10:42:18.374Z,1896.00
2022-09-06T10:43:18.346Z,1876.00
2022-09-06T10:44:18.355Z,1884.00
2022-09-06T10:45:18.347Z,1896.00
2022-09-06T10:46:18.351Z,1900.00
2022-09-06T10:47:18.311Z,1900.00
2022-09-06T10:48:18.297Z,1904.00
2022-09-06T10:49:18.275Z,1920.00
2022-09-06T10:50:18.268Z,1928.00
2022-09-06T10:51:18.247Z,1940.00
2022-09-06T10:52:18.267Z,1952.00
2022-09-06T10:53:18.226Z,1940.00
2022-09-06T10:54:18.227Z,1944.00
2022-09-06T10:55:18.217Z,1952.00
2022-09-06T10:56:18.215Z,1952.00
2022-09-06T10:58:19.963Z,1964.00
2022-09-06T11:00:19.169Z,1972.00
2022-09-06T11:01:18.201Z,1980.00
2022-09-06T11:02:18.239Z,1984.00
2022-09-06T11:04:19.130Z,1992.00
2022-09-06T11:06:20.090Z,1996.00
2022-09-06T11:07:18.079Z,2004.00
2022-09-06T11:09:19.122Z,2020.00
2022-09-06T11:10:18.051Z,2024.00
2022-09-06T11:11:18.052Z,2032.00
2022-09-06T11:12:18.035Z,2024.00
2022-09-06T11:13:18.051Z,2024.00
2022-09-06T11:14:18.040Z,2048.00
2022-09-06T11:15:18.003Z,2044.00
2022-09-06T11:16:18.031Z,2044.00
2022-09-06T11:17:17.983Z,2056.00
2022-09-06T11:18:17.984Z,2064.00
2022-09-06T11:19:17.983Z,2076.00
2022-09-06T11:20:17.945Z,2076.00
2022-09-06T11:21:19.526Z,2084.00
2022-09-06T11:22:17.935Z,2088.00
2022-09-06T11:23:17.955Z,2100.00
2022-09-06T11:24:17.895Z,2112.00
2022-09-06T11:25:17.908Z,2112.00
2022-09-06T11:26:17.887Z,2112.00
2022-09-06T11:27:17.887Z,2108.00
2022-09-06T11:28:18.008Z,2124.00
2022-09-06T11:29:17.883Z,2084.00
2022-09-06T11:30:17.836Z,2132.00
2022-09-06T11:32:18.904Z,2200.00
2022-09-06T11:33:17.819Z,2168.00
2022-09-06T11:34:18.440Z,2164.00
2022-09-06T11:35:17.807Z,2160.00
2022-09-06T11:36:17.778Z,2152.00
2022-09-06T11:37:17.779Z,2160.00
2022-09-06T11:38:17.759Z,2160.00
2022-09-06T11:39:17.850Z,2156.00
2022-09-06T11:41:18.739Z,2156.00
2022-09-06T11:42:17.719Z,2160.00
2022-09-06T11:43:17.711Z,2164.00
2022-09-06T11:44:17.712Z,2172.00
2022-09-06T11:45:17.691Z,2180.00
2022-09-06T11:46:20.509Z,2180.00
2022-09-06T11:47:17.683Z,2184.00
2022-09-06T11:48:17.652Z,2224.00
2022-09-06T11:49:17.655Z,2252.00
2022-09-06T11:50:17.638Z,2272.00
2022-09-06T11:51:17.644Z,2280.00
2022-09-06T11:52:17.603Z,2260.00
2022-09-06T11:53:17.623Z,2232.00
2022-09-06T11:54:17.755Z,2224.00
2022-09-06T11:55:21.039Z,2228.00
2022-09-06T11:56:18.588Z,2232.00
2022-09-06T11:57:17.569Z,2248.00
2022-09-06T11:58:17.536Z,2252.00
2022-09-06T11:59:17.547Z,2256.00
2022-09-06T12:00:17.515Z,2252.00
2022-09-06T12:01:17.535Z,2264.00
2022-09-06T12:02:17.535Z,2260.00
2022-09-06T12:04:18.496Z,2272.00
2022-09-06T12:05:17.497Z,2280.00
2022-09-06T12:06:17.471Z,2284.00
2022-09-06T12:07:17.479Z,2284.00
2022-09-06T12:08:17.447Z,2292.00
2022-09-06T12:09:17.459Z,2296.00
2022-09-06T12:10:17.420Z,2308.00
2022-09-06T12:11:17.419Z,2316.00
2022-09-06T12:12:17.411Z,2316.00
2022-09-06T12:13:17.399Z,2312.00
2022-09-06T12:14:17.372Z,2328.00
2022-09-06T12:15:17.377Z,2336.00
2022-09-06T12:16:17.467Z,2348.00
2022-09-06T12:17:17.379Z,2388.00
2022-09-06T12:18:17.332Z,2420.00
2022-09-06T12:19:17.331Z,2400.00
2022-09-06T12:20:17.344Z,2376.00
2022-09-06T12:21:17.313Z,2364.00
2022-09-06T12:22:17.295Z,2364.00
2022-09-06T12:23:17.293Z,2388.00
2022-09-06T12:24:17.276Z,2432.00
2022-09-06T12:25:17.277Z,2444.00
2022-09-06T12:26:17.377Z,2444.00
2022-09-06T12:27:17.252Z,2436.00
2022-09-06T12:28:17.236Z,2460.00
2022-09-06T12:29:17.261Z,2488.00
2022-09-06T12:30:17.216Z,2468.00
2022-09-06T12:31:18.378Z,2440.00
2022-09-06T12:32:17.196Z,2416.00
2022-09-06T12:33:17.185Z,2388.00
2022-09-06T12:34:17.176Z,2380.00
2022-09-06T12:36:18.151Z,2384.00
2022-09-06T12:37:17.161Z,2392.00
2022-09-06T12:38:17.144Z,2412.00
2022-09-06T12:39:17.120Z,2428.00
2022-09-06T12:40:17.108Z,2428.00
2022-09-06T12:41:17.101Z,2432.00
2022-09-06T12:42:17.100Z,2432.00
2022-09-06T12:43:17.273Z,2444.00
2022-09-06T12:44:17.061Z,2440.00
2022-09-06T12:45:17.061Z,2456.00
2022-09-06T12:46:17.095Z,2488.00
2022-09-06T12:47:17.046Z,2484.00
2022-09-06T12:48:17.053Z,2500.00
2022-09-06T12:49:17.012Z,2504.00
2022-09-06T12:50:17.013Z,2504.00
2022-09-06T12:51:17.005Z,2500.00
2022-09-06T12:52:17.005Z,2484.00
2022-09-06T12:53:17.907Z,2528.00
2022-09-06T12:54:16.959Z,2520.00
2022-09-06T12:55:16.976Z,2576.00
2022-09-06T12:56:16.937Z,2620.00
2022-09-06T12:57:16.937Z,2652.00
2022-09-06T12:58:16.917Z,2684.00
2022-09-06T12:59:16.939Z,2672.00
2022-09-06T13:00:16.898Z,2624.00
2022-09-06T13:01:17.019Z,2588.00
2022-09-06T13:02:17.001Z,2560.00
2022-09-06T13:03:16.908Z,2512.00
2022-09-06T13:04:16.857Z,2508.00
2022-09-06T13:05:16.856Z,2524.00
2022-09-06T13:06:16.837Z,2560.00